الصفحة الرئيسية
METAR-TAF:

METAR-TAF

مطار :

ناساو, البهاما

دائرة عرض: 25-03N, خط طول: 077-28W, ارتفاع: 3 متر

مراقبة الطقس الحالي

تاريخ ووقت الإصدار 2ساعات و 4 دقيقة قبل الساعة 16:00UTC
ريح 15 عقدة من الجنوب الشرقي
درجة الحرارة 31°درجة مئوية
الرطوبة 59%
ضغط 1022 hPa
الرؤية 10 كم أو أكثر
غيوم متفرقة على ارتفاع 2000 قدم
غيوم مفككة على ارتفاع 22000 قدم

METAR: MYNN 161600Z 14015KT 9999 SCT020 BKN220 31/22 A3018

زمن: 14:04 (18:04 UTC)

توقعات

تاريخ ووقت الإصدار 1ساعة و 34 دقيقة قبل الساعة 16:30UTC
التوقعات صالحة من16 الساعة 18 UTC إلى 17 الساعة 18 UTC
ريح 14 عقدة من الشرق/الجنوب الشرقي
الرؤية 10 كم أو أكثر
غيوم قليلة على ارتفاع 1600 قدم, مزنة ركامية.
غيوم متفرقة على ارتفاع 2000 قدم
غيوم مفككة على ارتفاع 20000 قدم

TAF: MYNN 161630Z 1618/1718 12014KT 9999 FEW016CB SCT020 BKN200

أرصاد الطقس والتوقعات من أكثر من 4000 مطار (تقارير الطقس للمطار METAR والتنبؤ بالطقس بالمطارTAF).

المحطات المتاحة هي النقط الصفراء والحمراء على الخريطة.

حرك المؤشر فوق النقطة لمعرفة اسم المحطة.

ثم انقر لمعرفة أرصاد وتوقعات الطقس.

لتغيير الخارطة: اضغط على الأزرار الخضراء مع رمز الصليب الأسود للتكبير. على الزر الأخضر مع شرطة للتصغير، أو على الأسهم الخضراء للخرائط المجاورة.


METAR-TAF: